createdAt,value
2023-05-06T00:01:25.645Z,41.74
2023-05-06T00:03:52.494Z,38.84
2023-05-06T00:06:19.538Z,38.59
2023-05-06T00:08:46.800Z,39.51
2023-05-06T00:11:13.854Z,40.64
2023-05-06T00:13:41.472Z,39.62
2023-05-06T00:16:08.356Z,39.40
2023-05-06T00:18:35.818Z,39.87
2023-05-06T00:21:02.540Z,39.90
2023-05-06T00:23:29.502Z,39.09
2023-05-06T00:25:56.514Z,40.53
2023-05-06T00:28:23.305Z,40.72
2023-05-06T00:30:50.574Z,41.46
2023-05-06T00:33:17.310Z,43.59
2023-05-06T00:35:44.154Z,41.18
2023-05-06T00:38:15.595Z,39.13
2023-05-06T00:40:42.672Z,40.33
2023-05-06T00:43:10.069Z,41.23
2023-05-06T00:45:37.324Z,41.54
2023-05-06T00:48:08.104Z,41.05
2023-05-06T00:50:35.829Z,42.38
2023-05-06T00:53:05.894Z,41.17
2023-05-06T00:55:32.812Z,40.19
2023-05-06T00:57:59.710Z,41.33
2023-05-06T01:00:26.885Z,42.71
2023-05-06T01:02:53.935Z,42.53
2023-05-06T01:05:23.836Z,41.18
2023-05-06T01:07:51.176Z,41.22
2023-05-06T01:10:20.916Z,40.84
2023-05-06T01:12:59.809Z,42.20
2023-05-06T01:15:44.779Z,41.06
2023-05-06T01:18:16.037Z,41.84
2023-05-06T01:20:47.691Z,42.39
2023-05-06T01:23:14.886Z,42.56
2023-05-06T01:25:42.062Z,43.08
2023-05-06T01:28:13.260Z,42.84
2023-05-06T01:30:54.963Z,42.02
2023-05-06T01:34:09.456Z,42.01
2023-05-06T01:37:01.377Z,41.14
2023-05-06T01:39:31.161Z,41.38
2023-05-06T01:42:02.209Z,44.00
2023-05-06T01:44:33.590Z,43.50
2023-05-06T01:47:02.671Z,42.56
2023-05-06T01:49:30.332Z,42.97
2023-05-06T01:51:58.027Z,45.76
2023-05-06T01:54:25.211Z,46.48
2023-05-06T01:56:51.948Z,45.05
2023-05-06T01:59:18.667Z,43.52
2023-05-06T02:01:45.557Z,45.46
2023-05-06T02:04:12.449Z,42.42
2023-05-06T02:06:39.530Z,43.61
2023-05-06T02:09:06.751Z,46.50
2023-05-06T02:11:38.608Z,45.55
2023-05-06T02:14:07.053Z,45.62
2023-05-06T02:16:35.681Z,44.24
2023-05-06T02:19:02.877Z,42.68
2023-05-06T02:21:29.668Z,42.99
2023-05-06T02:23:56.370Z,40.34
2023-05-06T02:26:23.268Z,41.59
2023-05-06T02:28:50.497Z,41.95
2023-05-06T02:31:17.869Z,40.91
2023-05-06T02:33:45.944Z,43.33
2023-05-06T02:36:12.905Z,40.86
2023-05-06T02:38:39.572Z,47.92
2023-05-06T02:41:06.829Z,45.88
2023-05-06T02:43:33.550Z,46.27
2023-05-06T02:46:00.407Z,44.56
2023-05-06T02:48:27.412Z,42.02
2023-05-06T02:50:54.081Z,45.05
2023-05-06T02:53:21.260Z,43.28
2023-05-06T02:55:48.345Z,42.86
2023-05-06T02:58:15.143Z,43.79
2023-05-06T03:00:42.014Z,42.17
2023-05-06T03:03:10.010Z,44.38
2023-05-06T03:05:37.284Z,43.04
2023-05-06T03:08:04.229Z,41.62
2023-05-06T03:10:32.149Z,42.63
2023-05-06T03:13:00.142Z,41.79
2023-05-06T03:15:28.310Z,41.89
2023-05-06T03:17:55.316Z,44.15
2023-05-06T03:20:23.034Z,42.15
2023-05-06T03:22:54.119Z,42.62
2023-05-06T03:25:22.379Z,44.25
2023-05-06T03:27:49.481Z,45.56
2023-05-06T03:30:19.832Z,42.44
2023-05-06T03:32:48.908Z,46.27
2023-05-06T03:35:22.798Z,43.52
2023-05-06T03:37:53.631Z,42.41
2023-05-06T03:40:22.928Z,41.78
2023-05-06T03:42:51.181Z,45.54
2023-05-06T03:45:19.025Z,44.26
2023-05-06T03:47:46.794Z,42.05
2023-05-06T03:50:14.076Z,42.03
2023-05-06T03:52:41.973Z,43.08
2023-05-06T03:55:10.472Z,42.11
2023-05-06T03:57:38.977Z,43.92
2023-05-06T04:00:07.835Z,43.07
2023-05-06T04:02:43.081Z,41.24
2023-05-06T04:05:14.488Z,43.79
2023-05-06T04:07:41.678Z,47.20
2023-05-06T04:10:09.185Z,45.17
2023-05-06T04:12:36.783Z,41.83
2023-05-06T04:15:04.439Z,42.00
2023-05-06T04:17:31.519Z,46.38
2023-05-06T04:19:58.721Z,42.94
2023-05-06T04:22:25.822Z,43.87
2023-05-06T04:24:53.755Z,42.94
2023-05-06T04:27:20.770Z,42.84
2023-05-06T04:29:47.821Z,42.23
2023-05-06T04:32:18.101Z,44.87
2023-05-06T04:34:47.404Z,42.87
2023-05-06T04:37:15.918Z,44.42
2023-05-06T04:39:47.650Z,42.24
2023-05-06T04:42:16.205Z,42.72
2023-05-06T04:44:50.293Z,40.57
2023-05-06T04:47:20.489Z,40.08
2023-05-06T04:49:50.614Z,42.29
2023-05-06T04:52:18.038Z,42.11
2023-05-06T04:54:45.723Z,41.79
2023-05-06T04:57:12.918Z,41.61
2023-05-06T04:59:42.777Z,41.46
2023-05-06T05:02:09.872Z,42.73
2023-05-06T05:04:37.204Z,44.07
2023-05-06T05:07:04.589Z,43.09
2023-05-06T05:09:32.248Z,43.37
2023-05-06T05:12:01.396Z,45.57
2023-05-06T05:14:29.950Z,43.00
2023-05-06T05:16:57.447Z,44.52
2023-05-06T05:19:24.561Z,49.44
2023-05-06T05:21:52.622Z,44.72
2023-05-06T05:24:20.419Z,49.04
2023-05-06T05:26:47.236Z,46.20
2023-05-06T05:29:15.520Z,45.99
2023-05-06T05:31:43.105Z,49.06
2023-05-06T05:34:10.367Z,45.90
2023-05-06T05:36:37.440Z,44.73
2023-05-06T05:39:07.556Z,45.67
2023-05-06T05:41:38.888Z,44.17
2023-05-06T05:44:06.021Z,43.93
2023-05-06T05:46:32.878Z,41.91
2023-05-06T05:49:00.779Z,45.42
2023-05-06T05:51:28.041Z,46.34
2023-05-06T05:53:57.007Z,43.12
2023-05-06T05:56:25.243Z,46.83
2023-05-06T05:58:51.978Z,47.10
2023-05-06T06:01:19.776Z,44.38
2023-05-06T06:03:47.759Z,40.66
2023-05-06T06:06:14.870Z,41.68
2023-05-06T06:08:41.852Z,42.04
2023-05-06T06:11:09.310Z,42.03
2023-05-06T06:13:40.233Z,42.72
2023-05-06T06:16:08.079Z,41.52
2023-05-06T06:18:35.128Z,44.33
2023-05-06T06:21:02.552Z,44.56
2023-05-06T06:23:29.641Z,43.10
2023-05-06T06:25:56.603Z,42.35
2023-05-06T06:28:23.352Z,42.00
2023-05-06T06:30:50.363Z,40.33
2023-05-06T06:33:17.468Z,43.66
2023-05-06T06:35:44.259Z,41.75
2023-05-06T06:38:11.693Z,41.31
2023-05-06T06:40:38.403Z,40.42
2023-05-06T06:43:05.300Z,42.31
2023-05-06T06:45:58.219Z,44.05
2023-05-06T06:48:25.151Z,45.85
2023-05-06T06:50:52.138Z,46.04
2023-05-06T06:53:19.061Z,44.48
2023-05-06T06:55:46.258Z,43.41
2023-05-06T06:58:13.462Z,46.03
2023-05-06T07:00:40.523Z,44.12
2023-05-06T07:03:07.349Z,47.47
2023-05-06T07:05:34.399Z,44.91
2023-05-06T07:08:01.273Z,42.67
2023-05-06T07:10:28.385Z,45.72
2023-05-06T07:12:55.244Z,43.57
2023-05-06T07:15:22.189Z,42.01
2023-05-06T07:17:48.894Z,44.73
2023-05-06T07:20:16.368Z,42.78
2023-05-06T07:22:45.570Z,44.63
2023-05-06T07:25:12.770Z,46.55
2023-05-06T07:27:39.991Z,45.27
2023-05-06T07:30:08.070Z,42.75
2023-05-06T07:32:35.646Z,42.14
2023-05-06T07:35:02.843Z,45.37
2023-05-06T07:37:30.014Z,47.54
2023-05-06T07:39:57.395Z,46.43
2023-05-06T07:42:24.243Z,43.96
2023-05-06T07:44:51.046Z,43.37
2023-05-06T07:47:28.526Z,42.56
2023-05-06T07:49:56.136Z,43.89
2023-05-06T07:52:24.081Z,42.80
2023-05-06T07:54:51.324Z,44.96
2023-05-06T07:57:18.077Z,44.43
2023-05-06T07:59:48.101Z,42.69
2023-05-06T08:02:15.459Z,41.49
2023-05-06T08:04:43.088Z,42.36
2023-05-06T08:07:11.200Z,42.26
2023-05-06T08:09:38.028Z,39.56
2023-05-06T08:12:05.430Z,39.92
2023-05-06T08:14:32.414Z,42.11
2023-05-06T08:16:59.715Z,43.03
2023-05-06T08:19:26.801Z,41.97
2023-05-06T08:21:54.298Z,41.67
2023-05-06T08:24:21.549Z,44.51
2023-05-06T08:26:48.358Z,43.54
2023-05-06T08:29:15.079Z,46.48
2023-05-06T08:31:43.750Z,44.78
2023-05-06T08:34:10.791Z,43.54
2023-05-06T08:36:37.944Z,46.89
2023-05-06T08:39:04.750Z,44.11
2023-05-06T08:41:34.459Z,43.30
2023-05-06T08:44:03.575Z,42.13
2023-05-06T08:46:31.177Z,41.48
2023-05-06T08:49:01.527Z,40.79
2023-05-06T08:51:33.076Z,42.17
2023-05-06T08:54:04.104Z,41.35
2023-05-06T08:56:33.958Z,41.02
2023-05-06T08:59:01.486Z,40.56
2023-05-06T09:01:28.807Z,40.13
2023-05-06T09:03:58.354Z,40.26
2023-05-06T09:06:27.183Z,40.60
2023-05-06T09:08:54.804Z,40.16
2023-05-06T09:11:26.095Z,40.29
2023-05-06T09:14:12.923Z,40.77
2023-05-06T09:16:42.766Z,38.96
2023-05-06T09:19:09.831Z,39.06
2023-05-06T09:21:39.247Z,41.39
2023-05-06T09:24:13.802Z,42.60
2023-05-06T09:26:42.885Z,39.30
2023-05-06T09:29:09.982Z,39.53
2023-05-06T09:31:46.100Z,39.88
2023-05-06T09:34:14.793Z,39.62
2023-05-06T09:36:41.899Z,39.43
2023-05-06T09:39:10.201Z,36.33
2023-05-06T09:42:25.419Z,30.76
2023-05-06T09:44:55.067Z,35.70
2023-05-06T09:47:28.680Z,30.68
2023-05-06T09:50:01.463Z,31.80
2023-05-06T09:52:55.239Z,37.26
2023-05-06T09:55:27.253Z,39.10
2023-05-06T09:58:43.995Z,36.42
2023-05-06T10:01:17.057Z,36.22
2023-05-06T10:03:51.726Z,35.53
2023-05-06T10:06:20.052Z,35.21
2023-05-06T10:08:48.147Z,34.96
2023-05-06T10:11:15.906Z,34.39
2023-05-06T10:13:44.517Z,34.28
2023-05-06T10:16:14.572Z,33.62
2023-05-06T10:18:45.984Z,35.08
2023-05-06T10:21:21.975Z,33.23
2023-05-06T10:24:07.734Z,34.90
2023-05-06T10:26:38.881Z,38.99
2023-05-06T10:29:09.596Z,30.72
2023-05-06T10:31:44.319Z,31.82
2023-05-06T10:34:11.560Z,31.60
2023-05-06T10:36:39.458Z,34.41
2023-05-06T10:39:10.636Z,27.80
2023-05-06T10:41:38.504Z,26.56
2023-05-06T10:44:06.172Z,25.53
2023-05-06T10:46:59.897Z,24.37
2023-05-06T10:49:27.833Z,26.72
2023-05-06T10:52:15.398Z,26.61
2023-05-06T10:54:51.874Z,25.12
2023-05-06T10:57:20.883Z,32.30
2023-05-06T10:59:48.818Z,35.96
2023-05-06T11:02:20.885Z,30.15
2023-05-06T11:04:53.047Z,32.35
2023-05-06T11:07:24.120Z,33.19
2023-05-06T11:10:02.124Z,30.99
2023-05-06T11:12:52.855Z,29.50
2023-05-06T11:15:24.509Z,31.86
2023-05-06T11:17:52.436Z,28.92
2023-05-06T11:20:23.474Z,26.89
2023-05-06T11:22:50.466Z,23.86
2023-05-06T11:25:53.676Z,26.86
2023-05-06T11:28:20.638Z,29.77
2023-05-06T11:30:56.266Z,31.30
2023-05-06T11:33:27.798Z,32.72
2023-05-06T11:35:54.522Z,33.81
2023-05-06T11:38:21.318Z,33.70
2023-05-06T11:40:49.400Z,38.17
2023-05-06T11:43:17.505Z,39.91
2023-05-06T11:45:48.552Z,36.04
2023-05-06T11:48:17.237Z,35.58
2023-05-06T11:50:46.105Z,30.47
2023-05-06T11:53:23.384Z,29.60
2023-05-06T11:55:53.228Z,34.42
2023-05-06T11:58:25.229Z,33.71
2023-05-06T12:00:57.530Z,36.67
2023-05-06T12:03:25.904Z,37.36
2023-05-06T12:05:53.648Z,35.73
2023-05-06T12:08:27.910Z,35.26
2023-05-06T12:10:59.337Z,36.47
2023-05-06T12:13:27.549Z,30.66
2023-05-06T12:15:55.579Z,32.39
2023-05-06T12:18:23.836Z,31.96
2023-05-06T12:20:53.480Z,32.02
2023-05-06T12:23:21.908Z,35.30
2023-05-06T12:26:02.399Z,32.98
2023-05-06T12:28:30.354Z,33.71
2023-05-06T12:30:57.126Z,32.39
2023-05-06T12:33:24.015Z,35.39
2023-05-06T12:35:57.065Z,35.31
2023-05-06T12:38:24.058Z,34.94
2023-05-06T12:40:55.164Z,35.40
2023-05-06T12:43:32.627Z,38.58
2023-05-06T12:46:04.937Z,34.70
2023-05-06T12:48:31.991Z,33.37
2023-05-06T12:50:58.942Z,30.28
2023-05-06T12:53:34.086Z,30.60
2023-05-06T12:56:01.052Z,31.11
2023-05-06T12:58:28.253Z,28.51
2023-05-06T13:00:55.013Z,28.96
2023-05-06T13:03:21.854Z,27.80
2023-05-06T13:05:50.329Z,27.39
2023-05-06T13:08:17.242Z,26.19
2023-05-06T13:10:44.021Z,27.28
2023-05-06T13:13:10.724Z,29.31
2023-05-06T13:15:37.800Z,31.43
2023-05-06T13:18:05.206Z,32.34
2023-05-06T13:20:32.704Z,31.13
2023-05-06T13:22:59.594Z,30.23
2023-05-06T13:25:26.355Z,29.75
2023-05-06T13:27:53.322Z,29.62
2023-05-06T13:30:20.185Z,30.03
2023-05-06T13:32:47.434Z,31.00
2023-05-06T13:35:14.415Z,30.20
2023-05-06T13:37:41.154Z,31.55
2023-05-06T13:40:08.800Z,31.67
2023-05-06T13:42:36.515Z,32.04
2023-05-06T13:45:03.293Z,31.12
2023-05-06T13:47:30.030Z,26.95
2023-05-06T13:49:56.751Z,26.79
2023-05-06T13:52:24.048Z,27.63
2023-05-06T13:54:50.752Z,27.93
2023-05-06T13:57:19.100Z,28.70
2023-05-06T13:59:46.073Z,28.28
2023-05-06T14:02:14.016Z,25.45
2023-05-06T14:04:41.105Z,27.38
2023-05-06T14:07:07.860Z,28.41
2023-05-06T14:09:34.623Z,28.99
2023-05-06T14:12:01.470Z,28.53
2023-05-06T14:14:28.806Z,27.97
2023-05-06T14:16:55.776Z,27.91
2023-05-06T14:19:22.506Z,28.12
2023-05-06T14:21:50.956Z,28.20
2023-05-06T14:24:17.690Z,28.58
2023-05-06T14:26:46.339Z,26.76
2023-05-06T14:29:13.154Z,28.19
2023-05-06T14:31:40.275Z,29.96
2023-05-06T14:34:07.312Z,31.44
2023-05-06T14:36:34.269Z,29.74
2023-05-06T14:39:01.305Z,29.59
2023-05-06T14:41:28.217Z,29.10
2023-05-06T14:43:55.266Z,28.17
2023-05-06T14:46:22.106Z,30.03
2023-05-06T14:48:48.823Z,29.07
2023-05-06T14:51:15.565Z,28.42
2023-05-06T14:53:42.427Z,27.49
2023-05-06T14:56:10.622Z,28.11
2023-05-06T14:58:37.489Z,28.94
2023-05-06T15:01:04.238Z,32.10
2023-05-06T15:03:31.110Z,32.75
2023-05-06T15:05:58.331Z,30.50
2023-05-06T15:08:26.391Z,32.90
2023-05-06T15:10:53.327Z,32.60
2023-05-06T15:13:20.314Z,31.01
2023-05-06T15:15:47.134Z,33.45
2023-05-06T15:18:14.307Z,31.02
2023-05-06T15:20:41.039Z,33.66
2023-05-06T15:23:07.767Z,31.31
2023-05-06T15:25:36.101Z,30.20
2023-05-06T15:28:05.122Z,30.65
2023-05-06T15:30:32.068Z,31.23
2023-05-06T15:32:58.988Z,29.67
2023-05-06T15:35:25.910Z,31.63
2023-05-06T15:37:59.735Z,30.44
2023-05-06T15:40:27.075Z,30.02
2023-05-06T15:42:54.177Z,30.04
2023-05-06T15:45:21.987Z,31.13
2023-05-06T15:47:49.054Z,29.29
2023-05-06T15:50:25.255Z,29.09
2023-05-06T15:52:58.749Z,29.54
2023-05-06T15:55:26.568Z,28.88
2023-05-06T15:57:54.842Z,30.21
2023-05-06T16:00:22.345Z,31.66
2023-05-06T16:02:49.413Z,30.86
2023-05-06T16:05:16.563Z,31.51
2023-05-06T16:07:43.964Z,30.46
2023-05-06T16:10:11.492Z,31.02
2023-05-06T16:12:38.518Z,31.27
2023-05-06T16:15:05.984Z,32.97
2023-05-06T16:17:37.484Z,31.01
2023-05-06T16:20:05.562Z,30.75
2023-05-06T16:22:32.604Z,29.51
2023-05-06T16:24:59.312Z,30.97
2023-05-06T16:27:28.288Z,30.36
2023-05-06T16:29:55.862Z,30.35
2023-05-06T16:32:23.474Z,29.89
2023-05-06T16:34:50.796Z,29.13
2023-05-06T16:37:17.668Z,30.06
2023-05-06T16:39:44.322Z,29.15
2023-05-06T16:42:11.344Z,28.74
2023-05-06T16:44:38.037Z,27.51
2023-05-06T16:47:04.797Z,28.50
2023-05-06T16:49:33.846Z,29.93
2023-05-06T16:52:00.812Z,31.69
2023-05-06T16:54:27.570Z,31.58
2023-05-06T16:56:54.835Z,32.10
2023-05-06T16:59:22.598Z,34.92
2023-05-06T17:01:50.400Z,33.24
2023-05-06T17:04:17.275Z,32.26
2023-05-06T17:06:44.589Z,33.75
2023-05-06T17:09:12.185Z,33.49
2023-05-06T17:11:38.924Z,35.46
2023-05-06T17:14:05.951Z,34.83
2023-05-06T17:16:33.047Z,35.54
2023-05-06T17:18:59.898Z,36.86
2023-05-06T17:21:27.882Z,36.15
2023-05-06T17:23:54.633Z,36.69
2023-05-06T17:26:22.146Z,37.01
2023-05-06T17:28:51.082Z,38.31
2023-05-06T17:31:18.441Z,38.36
2023-05-06T17:33:45.998Z,37.34
2023-05-06T17:36:13.854Z,38.14
2023-05-06T17:38:40.742Z,39.44
2023-05-06T17:41:07.543Z,38.34
2023-05-06T17:43:34.606Z,38.03
2023-05-06T17:46:01.758Z,37.53
2023-05-06T17:48:28.638Z,35.87
2023-05-06T17:51:00.961Z,35.66
2023-05-06T17:53:28.304Z,37.43
2023-05-06T17:55:55.129Z,39.45
2023-05-06T17:58:21.966Z,37.86
2023-05-06T18:00:48.733Z,37.72
2023-05-06T18:03:16.143Z,35.41
2023-05-06T18:05:42.900Z,35.08
2023-05-06T18:08:09.880Z,38.21
2023-05-06T18:10:36.749Z,39.72
2023-05-06T18:13:03.959Z,38.53
2023-05-06T18:15:31.396Z,38.12
2023-05-06T18:17:58.199Z,35.35
2023-05-06T18:20:25.109Z,33.83
2023-05-06T18:22:52.246Z,33.89
2023-05-06T18:25:19.151Z,35.91
2023-05-06T18:27:47.395Z,36.87
2023-05-06T18:30:16.223Z,35.83
2023-05-06T18:32:42.999Z,36.07
2023-05-06T18:35:13.713Z,35.24
2023-05-06T18:37:41.600Z,36.69
2023-05-06T18:40:09.262Z,34.97
2023-05-06T18:42:36.140Z,35.17
2023-05-06T18:45:05.219Z,36.36
2023-05-06T18:47:32.537Z,38.85
2023-05-06T18:50:00.759Z,41.42
2023-05-06T18:52:28.582Z,38.26
2023-05-06T18:54:55.583Z,38.38
2023-05-06T18:57:23.572Z,37.79
2023-05-06T18:59:50.371Z,36.98
2023-05-06T19:02:17.433Z,36.59
2023-05-06T19:04:44.220Z,37.43
2023-05-06T19:07:12.798Z,40.08
2023-05-06T19:09:42.572Z,41.49
2023-05-06T19:12:09.324Z,41.27
2023-05-06T19:14:36.207Z,42.34
2023-05-06T19:17:04.672Z,38.28
2023-05-06T19:19:31.997Z,39.21
2023-05-06T19:21:59.781Z,38.96
2023-05-06T19:24:26.851Z,38.58
2023-05-06T19:26:53.730Z,39.33
2023-05-06T19:29:20.808Z,40.71
2023-05-06T19:31:47.748Z,40.26
2023-05-06T19:34:14.523Z,39.76
2023-05-06T19:36:41.471Z,37.20
2023-05-06T19:39:08.419Z,37.98
2023-05-06T19:41:35.605Z,38.87
2023-05-06T19:44:02.652Z,38.62
2023-05-06T19:46:29.401Z,38.32
2023-05-06T19:48:58.146Z,38.19
2023-05-06T19:51:25.008Z,40.18
2023-05-06T19:53:51.808Z,38.88
2023-05-06T19:56:19.729Z,37.97
2023-05-06T19:58:46.725Z,38.34
2023-05-06T20:01:13.835Z,37.81
2023-05-06T20:03:40.858Z,37.70
2023-05-06T20:06:08.166Z,42.46
2023-05-06T20:08:35.561Z,39.87
2023-05-06T20:11:03.227Z,37.67
2023-05-06T20:13:30.033Z,38.56
2023-05-06T20:15:57.699Z,39.74
2023-05-06T20:18:25.629Z,39.37
2023-05-06T20:20:52.433Z,41.84
2023-05-06T20:23:19.120Z,39.94
2023-05-06T20:25:45.858Z,41.52
2023-05-06T20:28:13.336Z,41.46
2023-05-06T20:30:40.397Z,37.80
2023-05-06T20:33:08.026Z,38.01
2023-05-06T20:35:38.524Z,40.23
2023-05-06T20:38:06.571Z,38.21
2023-05-06T20:40:35.872Z,37.27
2023-05-06T20:43:04.041Z,39.33
2023-05-06T20:45:31.802Z,37.85
2023-05-06T20:47:59.110Z,37.94
2023-05-06T20:50:26.082Z,41.21
2023-05-06T20:52:54.479Z,41.08
2023-05-06T20:55:23.487Z,38.66
2023-05-06T20:57:50.480Z,37.15
2023-05-06T21:00:18.905Z,36.31
2023-05-06T21:02:45.661Z,37.20
2023-05-06T21:05:12.765Z,39.38
2023-05-06T21:07:39.928Z,38.16
2023-05-06T21:10:07.545Z,37.88
2023-05-06T21:12:34.523Z,37.57
2023-05-06T21:15:01.425Z,38.75
2023-05-06T21:17:29.247Z,37.79
2023-05-06T21:19:56.321Z,37.54
2023-05-06T21:22:23.964Z,40.04
2023-05-06T21:24:51.429Z,38.66
2023-05-06T21:27:18.655Z,40.39
2023-05-06T21:29:45.468Z,39.37
2023-05-06T21:32:12.452Z,38.92
2023-05-06T21:34:39.382Z,42.06
2023-05-06T21:37:06.126Z,40.38
2023-05-06T21:39:33.254Z,38.53
2023-05-06T21:42:00.038Z,38.21
2023-05-06T21:44:26.754Z,37.85
2023-05-06T21:46:53.857Z,38.07
2023-05-06T21:49:22.302Z,37.26
2023-05-06T21:51:49.556Z,38.83
2023-05-06T21:54:17.383Z,39.72
2023-05-06T21:56:44.589Z,40.97
2023-05-06T21:59:11.495Z,39.99
2023-05-06T22:01:39.048Z,39.02
2023-05-06T22:04:11.438Z,40.96
2023-05-06T22:06:39.510Z,40.46
2023-05-06T22:09:09.476Z,39.83
2023-05-06T22:11:38.329Z,40.65
2023-05-06T22:14:06.696Z,38.82
2023-05-06T22:16:35.558Z,39.32
2023-05-06T22:19:03.910Z,41.84
2023-05-06T22:21:31.983Z,39.80
2023-05-06T22:23:59.611Z,39.62
2023-05-06T22:26:28.139Z,39.61
2023-05-06T22:28:58.156Z,43.72
2023-05-06T22:31:26.030Z,42.35
2023-05-06T22:33:57.542Z,42.10
2023-05-06T22:36:29.159Z,43.00
2023-05-06T22:38:56.239Z,41.72
2023-05-06T22:41:23.276Z,40.02
2023-05-06T22:43:50.103Z,40.31
2023-05-06T22:46:17.055Z,38.20
2023-05-06T22:48:47.095Z,39.06
2023-05-06T22:51:16.897Z,38.93
2023-05-06T22:53:43.963Z,39.09
2023-05-06T22:56:11.231Z,39.39
2023-05-06T22:58:38.203Z,42.83
2023-05-06T23:01:05.148Z,39.20
2023-05-06T23:03:31.872Z,39.92
2023-05-06T23:05:58.684Z,39.20
2023-05-06T23:08:25.537Z,38.78
2023-05-06T23:10:52.543Z,37.17
2023-05-06T23:13:19.599Z,37.55
2023-05-06T23:15:46.358Z,39.21
2023-05-06T23:18:13.072Z,39.10
2023-05-06T23:20:39.813Z,37.77
2023-05-06T23:23:10.533Z,37.64
2023-05-06T23:25:37.656Z,38.61
2023-05-06T23:28:04.817Z,39.49
2023-05-06T23:30:31.605Z,37.83
2023-05-06T23:32:58.446Z,38.58
2023-05-06T23:35:26.042Z,37.09
2023-05-06T23:37:52.990Z,39.80
2023-05-06T23:40:19.925Z,38.29
2023-05-06T23:42:46.649Z,40.40
2023-05-06T23:45:13.465Z,39.40
2023-05-06T23:47:40.484Z,38.78
2023-05-06T23:50:07.907Z,37.96
2023-05-06T23:52:37.315Z,38.71
2023-05-06T23:55:05.490Z,39.13
2023-05-06T23:57:32.356Z,39.06
2023-05-06T23:59:59.363Z,38.05
